sensor_id;sensor_type;location;lat;lon;timestamp;P1;durP1;ratioP1;P2;durP2;ratioP2
25237;SDS011;13185;50.872;5.306;2022-10-31T00:01:33;19.95;;;11.93;;
25237;SDS011;13185;50.872;5.306;2022-10-31T00:04:00;20.02;;;12.23;;
25237;SDS011;13185;50.872;5.306;2022-10-31T00:06:26;20.00;;;11.75;;
25237;SDS011;13185;50.872;5.306;2022-10-31T00:08:54;17.23;;;12.45;;
25237;SDS011;13185;50.872;5.306;2022-10-31T00:11:21;20.60;;;12.70;;
25237;SDS011;13185;50.872;5.306;2022-10-31T00:13:47;25.17;;;13.32;;
25237;SDS011;13185;50.872;5.306;2022-10-31T00:16:13;23.67;;;12.38;;
25237;SDS011;13185;50.872;5.306;2022-10-31T00:18:40;22.52;;;13.13;;
25237;SDS011;13185;50.872;5.306;2022-10-31T00:21:05;24.80;;;13.90;;
25237;SDS011;13185;50.872;5.306;2022-10-31T00:23:31;25.35;;;14.05;;
25237;SDS011;13185;50.872;5.306;2022-10-31T00:26:00;34.40;;;15.20;;
25237;SDS011;13185;50.872;5.306;2022-10-31T00:28:27;28.80;;;15.38;;
25237;SDS011;13185;50.872;5.306;2022-10-31T00:30:52;28.40;;;14.45;;
25237;SDS011;13185;50.872;5.306;2022-10-31T00:33:18;27.80;;;15.10;;
25237;SDS011;13185;50.872;5.306;2022-10-31T00:35:48;29.95;;;16.08;;
25237;SDS011;13185;50.872;5.306;2022-10-31T00:38:15;25.17;;;14.70;;
25237;SDS011;13185;50.872;5.306;2022-10-31T00:40:40;27.02;;;15.15;;
25237;SDS011;13185;50.872;5.306;2022-10-31T00:43:06;29.13;;;14.63;;
25237;SDS011;13185;50.872;5.306;2022-10-31T00:45:31;31.70;;;14.57;;
25237;SDS011;13185;50.872;5.306;2022-10-31T00:47:57;29.38;;;14.80;;
25237;SDS011;13185;50.872;5.306;2022-10-31T00:50:22;33.40;;;16.60;;
25237;SDS011;13185;50.872;5.306;2022-10-31T00:52:48;28.00;;;15.40;;
25237;SDS011;13185;50.872;5.306;2022-10-31T00:55:13;31.98;;;14.63;;
25237;SDS011;13185;50.872;5.306;2022-10-31T00:57:39;28.70;;;15.05;;
25237;SDS011;13185;50.872;5.306;2022-10-31T01:00:05;29.02;;;15.48;;
25237;SDS011;13185;50.872;5.306;2022-10-31T01:02:31;32.70;;;14.93;;
25237;SDS011;13185;50.872;5.306;2022-10-31T01:04:56;23.73;;;13.48;;
25237;SDS011;13185;50.872;5.306;2022-10-31T01:07:22;24.92;;;13.90;;
25237;SDS011;13185;50.872;5.306;2022-10-31T01:09:47;28.98;;;16.38;;
25237;SDS011;13185;50.872;5.306;2022-10-31T01:12:13;24.67;;;14.15;;
25237;SDS011;13185;50.872;5.306;2022-10-31T01:14:42;30.67;;;14.40;;
25237;SDS011;13185;50.872;5.306;2022-10-31T01:17:08;26.63;;;13.48;;
25237;SDS011;13185;50.872;5.306;2022-10-31T01:19:34;23.77;;;13.65;;
25237;SDS011;13185;50.872;5.306;2022-10-31T01:21:59;27.08;;;12.65;;
25237;SDS011;13185;50.872;5.306;2022-10-31T01:24:28;26.65;;;12.93;;
25237;SDS011;13185;50.872;5.306;2022-10-31T01:26:53;22.33;;;12.85;;
25237;SDS011;13185;50.872;5.306;2022-10-31T01:29:19;25.40;;;13.77;;
25237;SDS011;13185;50.872;5.306;2022-10-31T01:31:44;25.20;;;13.85;;
25237;SDS011;13185;50.872;5.306;2022-10-31T01:34:14;24.08;;;14.10;;
25237;SDS011;13185;50.872;5.306;2022-10-31T01:36:41;24.65;;;12.27;;
25237;SDS011;13185;50.872;5.306;2022-10-31T01:39:10;26.60;;;13.20;;
25237;SDS011;13185;50.872;5.306;2022-10-31T01:41:38;27.55;;;13.13;;
25237;SDS011;13185;50.872;5.306;2022-10-31T01:46:45;27.67;;;13.27;;
25237;SDS011;13185;50.872;5.306;2022-10-31T01:49:38;29.48;;;14.35;;
25237;SDS011;13185;50.872;5.306;2022-10-31T01:55:02;27.40;;;14.77;;
25237;SDS011;13185;50.872;5.306;2022-10-31T01:57:37;26.42;;;11.95;;
25237;SDS011;13185;50.872;5.306;2022-10-31T02:00:08;27.42;;;13.30;;
25237;SDS011;13185;50.872;5.306;2022-10-31T02:02:41;21.42;;;12.38;;
25237;SDS011;13185;50.872;5.306;2022-10-31T02:05:11;26.60;;;13.15;;
25237;SDS011;13185;50.872;5.306;2022-10-31T02:10:32;24.42;;;13.45;;
25237;SDS011;13185;50.872;5.306;2022-10-31T02:12:59;23.05;;;11.73;;
25237;SDS011;13185;50.872;5.306;2022-10-31T02:15:28;22.20;;;11.70;;
25237;SDS011;13185;50.872;5.306;2022-10-31T02:17:55;22.50;;;12.18;;
25237;SDS011;13185;50.872;5.306;2022-10-31T02:20:21;21.17;;;12.40;;
25237;SDS011;13185;50.872;5.306;2022-10-31T02:28:22;18.75;;;11.38;;
25237;SDS011;13185;50.872;5.306;2022-10-31T02:34:01;23.02;;;12.73;;
25237;SDS011;13185;50.872;5.306;2022-10-31T02:36:53;22.52;;;11.70;;
25237;SDS011;13185;50.872;5.306;2022-10-31T02:39:29;24.48;;;12.10;;
25237;SDS011;13185;50.872;5.306;2022-10-31T02:42:14;24.27;;;12.23;;
25237;SDS011;13185;50.872;5.306;2022-10-31T02:47:26;20.33;;;11.05;;
25237;SDS011;13185;50.872;5.306;2022-10-31T02:49:59;18.33;;;10.60;;
25237;SDS011;13185;50.872;5.306;2022-10-31T02:52:32;21.20;;;11.20;;
25237;SDS011;13185;50.872;5.306;2022-10-31T02:58:09;19.70;;;11.63;;
25237;SDS011;13185;50.872;5.306;2022-10-31T03:00:47;18.88;;;10.55;;
25237;SDS011;13185;50.872;5.306;2022-10-31T03:03:30;20.20;;;11.27;;
25237;SDS011;13185;50.872;5.306;2022-10-31T03:06:24;23.98;;;11.27;;
25237;SDS011;13185;50.872;5.306;2022-10-31T03:14:39;14.40;;;10.02;;
25237;SDS011;13185;50.872;5.306;2022-10-31T03:17:07;18.70;;;9.93;;
25237;SDS011;13185;50.872;5.306;2022-10-31T03:19:43;18.90;;;9.80;;
25237;SDS011;13185;50.872;5.306;2022-10-31T03:22:16;21.90;;;9.90;;
25237;SDS011;13185;50.872;5.306;2022-10-31T03:24:46;16.70;;;9.77;;
25237;SDS011;13185;50.872;5.306;2022-10-31T03:27:14;20.88;;;9.27;;
25237;SDS011;13185;50.872;5.306;2022-10-31T03:29:45;20.92;;;10.27;;
25237;SDS011;13185;50.872;5.306;2022-10-31T03:32:24;15.45;;;8.68;;
25237;SDS011;13185;50.872;5.306;2022-10-31T03:34:56;13.98;;;9.60;;
25237;SDS011;13185;50.872;5.306;2022-10-31T03:37:24;17.67;;;9.15;;
25237;SDS011;13185;50.872;5.306;2022-10-31T03:39:52;15.57;;;9.07;;
25237;SDS011;13185;50.872;5.306;2022-10-31T03:42:25;14.93;;;9.02;;
25237;SDS011;13185;50.872;5.306;2022-10-31T03:44:56;17.48;;;8.85;;
25237;SDS011;13185;50.872;5.306;2022-10-31T03:47:26;17.35;;;9.18;;
25237;SDS011;13185;50.872;5.306;2022-10-31T03:49:52;14.43;;;8.77;;
25237;SDS011;13185;50.872;5.306;2022-10-31T03:52:41;12.32;;;7.93;;
25237;SDS011;13185;50.872;5.306;2022-10-31T04:00:14;11.13;;;8.10;;
25237;SDS011;13185;50.872;5.306;2022-10-31T04:02:53;11.70;;;7.90;;
25237;SDS011;13185;50.872;5.306;2022-10-31T04:05:26;11.27;;;8.32;;
25237;SDS011;13185;50.872;5.306;2022-10-31T04:07:58;13.35;;;8.50;;
25237;SDS011;13185;50.872;5.306;2022-10-31T04:10:30;14.05;;;7.53;;
25237;SDS011;13185;50.872;5.306;2022-10-31T04:12:58;10.25;;;7.72;;
25237;SDS011;13185;50.872;5.306;2022-10-31T04:15:34;16.48;;;8.15;;
25237;SDS011;13185;50.872;5.306;2022-10-31T04:18:02;13.63;;;8.75;;
25237;SDS011;13185;50.872;5.306;2022-10-31T04:20:34;19.58;;;8.65;;
25237;SDS011;13185;50.872;5.306;2022-10-31T04:23:04;16.20;;;8.52;;
25237;SDS011;13185;50.872;5.306;2022-10-31T04:25:38;11.68;;;8.00;;
25237;SDS011;13185;50.872;5.306;2022-10-31T04:28:04;15.85;;;8.52;;
25237;SDS011;13185;50.872;5.306;2022-10-31T04:30:30;14.25;;;8.68;;
25237;SDS011;13185;50.872;5.306;2022-10-31T04:32:55;15.55;;;9.07;;
25237;SDS011;13185;50.872;5.306;2022-10-31T04:35:21;15.05;;;8.57;;
25237;SDS011;13185;50.872;5.306;2022-10-31T04:37:48;13.70;;;8.30;;
25237;SDS011;13185;50.872;5.306;2022-10-31T04:40:13;14.18;;;8.77;;
25237;SDS011;13185;50.872;5.306;2022-10-31T04:43:11;17.73;;;9.95;;
25237;SDS011;13185;50.872;5.306;2022-10-31T04:45:37;21.23;;;8.07;;
25237;SDS011;13185;50.872;5.306;2022-10-31T04:48:03;14.00;;;8.38;;
25237;SDS011;13185;50.872;5.306;2022-10-31T04:50:32;12.95;;;8.00;;
25237;SDS011;13185;50.872;5.306;2022-10-31T04:52:57;13.13;;;7.93;;
25237;SDS011;13185;50.872;5.306;2022-10-31T04:55:26;10.98;;;8.18;;
25237;SDS011;13185;50.872;5.306;2022-10-31T04:58:17;15.02;;;8.25;;
25237;SDS011;13185;50.872;5.306;2022-10-31T05:00:43;19.63;;;8.50;;
25237;SDS011;13185;50.872;5.306;2022-10-31T05:03:09;15.27;;;8.60;;
25237;SDS011;13185;50.872;5.306;2022-10-31T05:05:34;12.90;;;7.90;;
25237;SDS011;13185;50.872;5.306;2022-10-31T05:08:02;15.57;;;8.75;;
25237;SDS011;13185;50.872;5.306;2022-10-31T05:10:29;13.18;;;7.22;;
25237;SDS011;13185;50.872;5.306;2022-10-31T05:12:59;10.85;;;8.02;;
25237;SDS011;13185;50.872;5.306;2022-10-31T05:15:44;11.77;;;7.68;;
25237;SDS011;13185;50.872;5.306;2022-10-31T05:18:28;11.65;;;7.18;;
25237;SDS011;13185;50.872;5.306;2022-10-31T05:20:53;14.82;;;7.65;;
25237;SDS011;13185;50.872;5.306;2022-10-31T05:23:26;10.33;;;6.73;;
25237;SDS011;13185;50.872;5.306;2022-10-31T05:25:52;13.43;;;8.23;;
25237;SDS011;13185;50.872;5.306;2022-10-31T05:28:18;14.10;;;7.88;;
25237;SDS011;13185;50.872;5.306;2022-10-31T05:30:43;13.38;;;7.10;;
25237;SDS011;13185;50.872;5.306;2022-10-31T05:33:12;15.90;;;7.43;;
25237;SDS011;13185;50.872;5.306;2022-10-31T05:36:00;13.55;;;8.00;;
25237;SDS011;13185;50.872;5.306;2022-10-31T05:38:35;13.57;;;8.25;;
25237;SDS011;13185;50.872;5.306;2022-10-31T05:41:09;13.55;;;7.85;;
25237;SDS011;13185;50.872;5.306;2022-10-31T05:43:35;13.18;;;8.05;;
25237;SDS011;13185;50.872;5.306;2022-10-31T05:46:04;16.98;;;7.60;;
25237;SDS011;13185;50.872;5.306;2022-10-31T05:48:55;15.20;;;8.65;;
25237;SDS011;13185;50.872;5.306;2022-10-31T05:51:39;13.35;;;7.50;;
25237;SDS011;13185;50.872;5.306;2022-10-31T05:54:07;14.98;;;7.78;;
25237;SDS011;13185;50.872;5.306;2022-10-31T05:56:32;14.55;;;7.40;;
25237;SDS011;13185;50.872;5.306;2022-10-31T05:58:59;10.98;;;7.03;;
25237;SDS011;13185;50.872;5.306;2022-10-31T06:01:25;13.35;;;7.63;;
25237;SDS011;13185;50.872;5.306;2022-10-31T06:03:51;14.23;;;7.80;;
25237;SDS011;13185;50.872;5.306;2022-10-31T06:06:18;12.90;;;7.05;;
25237;SDS011;13185;50.872;5.306;2022-10-31T06:08:44;12.20;;;8.23;;
25237;SDS011;13185;50.872;5.306;2022-10-31T06:11:17;11.52;;;7.20;;
25237;SDS011;13185;50.872;5.306;2022-10-31T06:14:03;12.23;;;7.50;;
25237;SDS011;13185;50.872;5.306;2022-10-31T06:16:51;13.80;;;8.00;;
25237;SDS011;13185;50.872;5.306;2022-10-31T06:19:54;14.68;;;7.78;;
25237;SDS011;13185;50.872;5.306;2022-10-31T06:22:23;16.83;;;7.57;;
25237;SDS011;13185;50.872;5.306;2022-10-31T06:24:48;12.85;;;7.88;;
25237;SDS011;13185;50.872;5.306;2022-10-31T06:27:40;15.15;;;7.97;;
25237;SDS011;13185;50.872;5.306;2022-10-31T06:30:12;13.27;;;7.22;;
25237;SDS011;13185;50.872;5.306;2022-10-31T06:32:37;13.35;;;8.07;;
25237;SDS011;13185;50.872;5.306;2022-10-31T06:35:03;15.80;;;8.95;;
25237;SDS011;13185;50.872;5.306;2022-10-31T06:37:31;13.73;;;7.53;;
25237;SDS011;13185;50.872;5.306;2022-10-31T06:40:03;12.23;;;8.63;;
25237;SDS011;13185;50.872;5.306;2022-10-31T06:42:37;15.45;;;9.18;;
25237;SDS011;13185;50.872;5.306;2022-10-31T06:45:03;19.63;;;11.88;;
25237;SDS011;13185;50.872;5.306;2022-10-31T06:47:57;18.30;;;10.95;;
25237;SDS011;13185;50.872;5.306;2022-10-31T06:50:31;16.65;;;11.60;;
25237;SDS011;13185;50.872;5.306;2022-10-31T06:52:57;22.42;;;9.65;;
25237;SDS011;13185;50.872;5.306;2022-10-31T06:55:24;15.77;;;9.40;;
25237;SDS011;13185;50.872;5.306;2022-10-31T06:58:09;16.95;;;8.85;;
25237;SDS011;13185;50.872;5.306;2022-10-31T07:00:36;17.00;;;8.93;;
25237;SDS011;13185;50.872;5.306;2022-10-31T07:03:06;14.98;;;8.80;;
25237;SDS011;13185;50.872;5.306;2022-10-31T07:05:35;16.17;;;8.23;;
25237;SDS011;13185;50.872;5.306;2022-10-31T07:08:02;18.58;;;9.25;;
25237;SDS011;13185;50.872;5.306;2022-10-31T07:10:30;12.52;;;8.48;;
25237;SDS011;13185;50.872;5.306;2022-10-31T07:13:02;13.27;;;8.65;;
25237;SDS011;13185;50.872;5.306;2022-10-31T07:15:35;15.52;;;8.43;;
25237;SDS011;13185;50.872;5.306;2022-10-31T07:18:02;14.98;;;8.30;;
25237;SDS011;13185;50.872;5.306;2022-10-31T07:20:30;12.63;;;8.65;;
25237;SDS011;13185;50.872;5.306;2022-10-31T07:22:56;16.35;;;9.20;;
25237;SDS011;13185;50.872;5.306;2022-10-31T07:25:22;19.55;;;9.85;;
25237;SDS011;13185;50.872;5.306;2022-10-31T07:28:21;17.75;;;9.98;;
25237;SDS011;13185;50.872;5.306;2022-10-31T07:30:53;16.17;;;10.30;;
25237;SDS011;13185;50.872;5.306;2022-10-31T07:33:21;18.10;;;10.32;;
25237;SDS011;13185;50.872;5.306;2022-10-31T07:36:06;16.10;;;9.82;;
25237;SDS011;13185;50.872;5.306;2022-10-31T07:38:32;16.92;;;9.20;;
25237;SDS011;13185;50.872;5.306;2022-10-31T07:41:02;15.43;;;8.57;;
25237;SDS011;13185;50.872;5.306;2022-10-31T07:43:30;14.80;;;8.63;;
25237;SDS011;13185;50.872;5.306;2022-10-31T07:46:15;18.77;;;10.32;;
25237;SDS011;13185;50.872;5.306;2022-10-31T07:48:47;17.63;;;9.27;;
25237;SDS011;13185;50.872;5.306;2022-10-31T07:54:28;14.95;;;9.70;;
25237;SDS011;13185;50.872;5.306;2022-10-31T07:56:53;17.83;;;9.77;;
25237;SDS011;13185;50.872;5.306;2022-10-31T07:59:19;18.48;;;11.00;;
25237;SDS011;13185;50.872;5.306;2022-10-31T08:01:44;19.30;;;11.05;;
25237;SDS011;13185;50.872;5.306;2022-10-31T08:04:29;20.67;;;10.60;;
25237;SDS011;13185;50.872;5.306;2022-10-31T08:07:13;14.13;;;10.18;;
25237;SDS011;13185;50.872;5.306;2022-10-31T08:09:43;14.98;;;9.85;;
25237;SDS011;13185;50.872;5.306;2022-10-31T08:12:17;19.45;;;10.52;;
25237;SDS011;13185;50.872;5.306;2022-10-31T08:14:43;23.98;;;11.45;;
25237;SDS011;13185;50.872;5.306;2022-10-31T08:17:09;19.15;;;12.02;;
25237;SDS011;13185;50.872;5.306;2022-10-31T08:19:44;21.90;;;13.40;;
25237;SDS011;13185;50.872;5.306;2022-10-31T08:22:12;19.73;;;12.18;;
25237;SDS011;13185;50.872;5.306;2022-10-31T08:24:38;21.27;;;11.90;;
25237;SDS011;13185;50.872;5.306;2022-10-31T08:27:03;19.73;;;11.02;;
25237;SDS011;13185;50.872;5.306;2022-10-31T08:29:29;16.30;;;10.23;;
25237;SDS011;13185;50.872;5.306;2022-10-31T08:31:57;17.27;;;9.98;;
25237;SDS011;13185;50.872;5.306;2022-10-31T08:34:57;14.60;;;9.07;;
25237;SDS011;13185;50.872;5.306;2022-10-31T08:37:53;16.33;;;9.05;;
25237;SDS011;13185;50.872;5.306;2022-10-31T08:40:25;13.73;;;8.20;;
25237;SDS011;13185;50.872;5.306;2022-10-31T08:42:57;19.42;;;9.43;;
25237;SDS011;13185;50.872;5.306;2022-10-31T08:45:37;16.60;;;8.50;;
25237;SDS011;13185;50.872;5.306;2022-10-31T08:48:09;13.93;;;8.50;;
25237;SDS011;13185;50.872;5.306;2022-10-31T08:50:37;14.70;;;8.75;;
25237;SDS011;13185;50.872;5.306;2022-10-31T08:53:03;17.27;;;9.20;;
25237;SDS011;13185;50.872;5.306;2022-10-31T08:55:32;15.73;;;9.63;;
25237;SDS011;13185;50.872;5.306;2022-10-31T08:58:03;17.70;;;9.40;;
25237;SDS011;13185;50.872;5.306;2022-10-31T09:00:39;13.15;;;9.32;;
25237;SDS011;13185;50.872;5.306;2022-10-31T09:03:12;22.75;;;10.63;;
25237;SDS011;13185;50.872;5.306;2022-10-31T09:05:41;15.07;;;9.95;;
25237;SDS011;13185;50.872;5.306;2022-10-31T09:08:10;16.45;;;10.45;;
25237;SDS011;13185;50.872;5.306;2022-10-31T09:10:37;18.35;;;9.65;;
25237;SDS011;13185;50.872;5.306;2022-10-31T09:13:04;19.52;;;10.35;;
25237;SDS011;13185;50.872;5.306;2022-10-31T09:15:51;22.45;;;10.93;;
25237;SDS011;13185;50.872;5.306;2022-10-31T09:18:20;18.75;;;9.95;;
25237;SDS011;13185;50.872;5.306;2022-10-31T09:20:58;16.13;;;10.98;;
25237;SDS011;13185;50.872;5.306;2022-10-31T09:23:26;18.55;;;11.52;;
25237;SDS011;13185;50.872;5.306;2022-10-31T09:25:52;24.02;;;11.65;;
25237;SDS011;13185;50.872;5.306;2022-10-31T09:28:40;22.90;;;12.07;;
25237;SDS011;13185;50.872;5.306;2022-10-31T09:31:11;22.48;;;12.23;;
25237;SDS011;13185;50.872;5.306;2022-10-31T09:33:49;19.33;;;12.38;;
25237;SDS011;13185;50.872;5.306;2022-10-31T09:36:34;25.48;;;14.70;;
25237;SDS011;13185;50.872;5.306;2022-10-31T09:39:02;26.60;;;13.88;;
25237;SDS011;13185;50.872;5.306;2022-10-31T09:41:43;20.15;;;13.18;;
25237;SDS011;13185;50.872;5.306;2022-10-31T09:50:37;26.38;;;13.52;;
25237;SDS011;13185;50.872;5.306;2022-10-31T09:56:01;21.27;;;14.68;;
25237;SDS011;13185;50.872;5.306;2022-10-31T09:58:30;27.48;;;15.32;;
25237;SDS011;13185;50.872;5.306;2022-10-31T10:01:00;25.63;;;15.65;;
25237;SDS011;13185;50.872;5.306;2022-10-31T10:06:11;26.85;;;15.60;;
25237;SDS011;13185;50.872;5.306;2022-10-31T10:09:21;24.75;;;15.27;;
25237;SDS011;13185;50.872;5.306;2022-10-31T10:15:19;22.83;;;15.32;;
25237;SDS011;13185;50.872;5.306;2022-10-31T10:28:37;26.63;;;14.63;;
25237;SDS011;13185;50.872;5.306;2022-10-31T10:33:47;22.35;;;13.85;;
25237;SDS011;13185;50.872;5.306;2022-10-31T10:36:30;25.88;;;15.07;;
25237;SDS011;13185;50.872;5.306;2022-10-31T10:39:04;26.35;;;13.70;;
25237;SDS011;13185;50.872;5.306;2022-10-31T10:41:37;26.30;;;15.25;;
25237;SDS011;13185;50.872;5.306;2022-10-31T10:44:08;32.13;;;18.25;;
25237;SDS011;13185;50.872;5.306;2022-10-31T10:46:49;27.85;;;15.95;;
25237;SDS011;13185;50.872;5.306;2022-10-31T10:49:39;24.38;;;15.60;;
25237;SDS011;13185;50.872;5.306;2022-10-31T10:52:16;23.25;;;14.98;;
25237;SDS011;13185;50.872;5.306;2022-10-31T10:58:00;21.95;;;14.52;;
25237;SDS011;13185;50.872;5.306;2022-10-31T11:00:30;20.95;;;13.90;;
25237;SDS011;13185;50.872;5.306;2022-10-31T11:02:59;20.63;;;13.88;;
25237;SDS011;13185;50.872;5.306;2022-10-31T11:05:30;19.58;;;14.48;;
25237;SDS011;13185;50.872;5.306;2022-10-31T11:08:04;20.15;;;14.07;;
25237;SDS011;13185;50.872;5.306;2022-10-31T11:10:30;18.23;;;13.48;;
25237;SDS011;13185;50.872;5.306;2022-10-31T11:13:17;21.20;;;14.90;;
25237;SDS011;13185;50.872;5.306;2022-10-31T11:15:53;22.40;;;14.27;;
25237;SDS011;13185;50.872;5.306;2022-10-31T11:18:25;19.55;;;13.73;;
25237;SDS011;13185;50.872;5.306;2022-10-31T11:20:53;21.92;;;14.52;;
25237;SDS011;13185;50.872;5.306;2022-10-31T11:23:21;21.50;;;12.70;;
25237;SDS011;13185;50.872;5.306;2022-10-31T11:28:19;20.95;;;13.18;;
25237;SDS011;13185;50.872;5.306;2022-10-31T11:30:47;22.65;;;12.68;;
25237;SDS011;13185;50.872;5.306;2022-10-31T11:33:16;23.67;;;12.15;;
25237;SDS011;13185;50.872;5.306;2022-10-31T11:35:45;19.83;;;12.50;;
25237;SDS011;13185;50.872;5.306;2022-10-31T11:38:19;20.77;;;11.43;;
25237;SDS011;13185;50.872;5.306;2022-10-31T11:40:52;17.17;;;11.30;;
25237;SDS011;13185;50.872;5.306;2022-10-31T11:43:20;17.85;;;10.82;;
25237;SDS011;13185;50.872;5.306;2022-10-31T11:45:46;17.55;;;10.40;;
25237;SDS011;13185;50.872;5.306;2022-10-31T11:48:17;20.55;;;11.32;;
25237;SDS011;13185;50.872;5.306;2022-10-31T11:51:03;17.88;;;11.88;;
25237;SDS011;13185;50.872;5.306;2022-10-31T11:53:30;20.15;;;10.90;;
25237;SDS011;13185;50.872;5.306;2022-10-31T11:56:00;20.52;;;11.52;;
25237;SDS011;13185;50.872;5.306;2022-10-31T11:58:31;17.67;;;10.57;;
25237;SDS011;13185;50.872;5.306;2022-10-31T12:00:57;18.60;;;10.98;;
25237;SDS011;13185;50.872;5.306;2022-10-31T12:08:18;19.25;;;10.35;;
25237;SDS011;13185;50.872;5.306;2022-10-31T12:10:52;19.50;;;10.52;;
25237;SDS011;13185;50.872;5.306;2022-10-31T12:13:28;18.42;;;10.77;;
25237;SDS011;13185;50.872;5.306;2022-10-31T12:16:02;22.35;;;11.10;;
25237;SDS011;13185;50.872;5.306;2022-10-31T12:19:04;20.15;;;11.05;;
25237;SDS011;13185;50.872;5.306;2022-10-31T12:27:10;20.52;;;11.18;;
25237;SDS011;13185;50.872;5.306;2022-10-31T12:46:00;24.95;;;10.52;;
25237;SDS011;13185;50.872;5.306;2022-10-31T12:59:16;20.40;;;9.48;;
25237;SDS011;13185;50.872;5.306;2022-10-31T13:01:49;16.27;;;9.63;;
25237;SDS011;13185;50.872;5.306;2022-10-31T13:04:33;19.35;;;10.13;;
25237;SDS011;13185;50.872;5.306;2022-10-31T13:07:00;19.35;;;9.90;;
25237;SDS011;13185;50.872;5.306;2022-10-31T13:09:37;16.75;;;9.45;;
25237;SDS011;13185;50.872;5.306;2022-10-31T13:12:08;21.77;;;10.43;;
25237;SDS011;13185;50.872;5.306;2022-10-31T13:14:42;17.98;;;10.30;;
25237;SDS011;13185;50.872;5.306;2022-10-31T13:17:14;18.85;;;10.07;;
25237;SDS011;13185;50.872;5.306;2022-10-31T13:22:33;13.15;;;8.82;;
25237;SDS011;13185;50.872;5.306;2022-10-31T13:27:37;18.45;;;8.73;;
25237;SDS011;13185;50.872;5.306;2022-10-31T13:30:14;21.48;;;9.32;;
25237;SDS011;13185;50.872;5.306;2022-10-31T13:32:52;15.93;;;9.00;;
25237;SDS011;13185;50.872;5.306;2022-10-31T13:35:29;17.58;;;8.95;;
25237;SDS011;13185;50.872;5.306;2022-10-31T13:43:59;13.52;;;7.88;;
25237;SDS011;13185;50.872;5.306;2022-10-31T13:48:56;16.65;;;8.30;;
25237;SDS011;13185;50.872;5.306;2022-10-31T13:51:26;13.27;;;8.02;;
25237;SDS011;13185;50.872;5.306;2022-10-31T14:01:26;15.88;;;8.52;;
25237;SDS011;13185;50.872;5.306;2022-10-31T14:09:31;21.05;;;8.38;;
25237;SDS011;13185;50.872;5.306;2022-10-31T14:12:09;15.67;;;7.80;;
25237;SDS011;13185;50.872;5.306;2022-10-31T14:14:47;19.17;;;8.98;;
25237;SDS011;13185;50.872;5.306;2022-10-31T14:17:19;16.38;;;8.82;;
25237;SDS011;13185;50.872;5.306;2022-10-31T14:22:45;17.67;;;8.35;;
25237;SDS011;13185;50.872;5.306;2022-10-31T14:25:31;19.13;;;8.25;;
25237;SDS011;13185;50.872;5.306;2022-10-31T14:27:59;19.27;;;8.35;;
25237;SDS011;13185;50.872;5.306;2022-10-31T14:30:27;19.38;;;8.13;;
25237;SDS011;13185;50.872;5.306;2022-10-31T14:32:55;27.42;;;9.57;;
25237;SDS011;13185;50.872;5.306;2022-10-31T14:35:51;33.42;;;8.88;;
25237;SDS011;13185;50.872;5.306;2022-10-31T14:38:46;20.75;;;8.32;;
25237;SDS011;13185;50.872;5.306;2022-10-31T14:41:23;14.77;;;7.55;;
25237;SDS011;13185;50.872;5.306;2022-10-31T14:47:15;15.93;;;7.10;;
25237;SDS011;13185;50.872;5.306;2022-10-31T14:52:29;15.73;;;7.20;;
25237;SDS011;13185;50.872;5.306;2022-10-31T14:54:56;15.77;;;6.82;;
25237;SDS011;13185;50.872;5.306;2022-10-31T14:57:25;21.63;;;6.95;;
25237;SDS011;13185;50.872;5.306;2022-10-31T14:59:55;9.82;;;6.80;;
25237;SDS011;13185;50.872;5.306;2022-10-31T15:02:27;16.77;;;6.68;;
25237;SDS011;13185;50.872;5.306;2022-10-31T15:05:05;19.73;;;7.13;;
25237;SDS011;13185;50.872;5.306;2022-10-31T15:07:33;18.95;;;6.78;;
25237;SDS011;13185;50.872;5.306;2022-10-31T15:10:00;15.23;;;6.40;;
25237;SDS011;13185;50.872;5.306;2022-10-31T15:12:31;17.08;;;6.50;;
25237;SDS011;13185;50.872;5.306;2022-10-31T15:15:10;20.13;;;6.70;;
25237;SDS011;13185;50.872;5.306;2022-10-31T15:17:43;12.40;;;6.57;;
25237;SDS011;13185;50.872;5.306;2022-10-31T15:20:16;15.98;;;6.18;;
25237;SDS011;13185;50.872;5.306;2022-10-31T15:22:45;10.05;;;5.65;;
25237;SDS011;13185;50.872;5.306;2022-10-31T15:25:20;12.65;;;5.93;;
25237;SDS011;13185;50.872;5.306;2022-10-31T15:27:48;15.15;;;5.55;;
25237;SDS011;13185;50.872;5.306;2022-10-31T15:32:47;15.77;;;6.80;;
25237;SDS011;13185;50.872;5.306;2022-10-31T15:35:21;11.77;;;5.93;;
25237;SDS011;13185;50.872;5.306;2022-10-31T15:37:47;10.93;;;4.97;;
25237;SDS011;13185;50.872;5.306;2022-10-31T15:40:16;16.25;;;5.30;;
25237;SDS011;13185;50.872;5.306;2022-10-31T15:42:43;12.70;;;4.20;;
25237;SDS011;13185;50.872;5.306;2022-10-31T15:45:19;12.73;;;4.38;;
25237;SDS011;13185;50.872;5.306;2022-10-31T15:47:55;11.15;;;3.90;;
25237;SDS011;13185;50.872;5.306;2022-10-31T15:50:31;7.88;;;3.17;;
25237;SDS011;13185;50.872;5.306;2022-10-31T15:53:01;9.05;;;3.15;;
25237;SDS011;13185;50.872;5.306;2022-10-31T15:55:29;19.42;;;3.65;;
25237;SDS011;13185;50.872;5.306;2022-10-31T15:57:58;14.35;;;2.80;;
25237;SDS011;13185;50.872;5.306;2022-10-31T16:00:37;11.15;;;3.38;;
25237;SDS011;13185;50.872;5.306;2022-10-31T16:05:43;9.15;;;2.90;;
25237;SDS011;13185;50.872;5.306;2022-10-31T16:10:51;6.25;;;2.55;;
25237;SDS011;13185;50.872;5.306;2022-10-31T16:13:25;9.88;;;3.25;;
25237;SDS011;13185;50.872;5.306;2022-10-31T16:15:54;10.70;;;3.95;;
25237;SDS011;13185;50.872;5.306;2022-10-31T16:18:23;10.52;;;3.17;;
25237;SDS011;13185;50.872;5.306;2022-10-31T16:20:50;7.00;;;3.70;;
25237;SDS011;13185;50.872;5.306;2022-10-31T16:23:17;13.32;;;4.50;;
25237;SDS011;13185;50.872;5.306;2022-10-31T16:25:44;15.02;;;5.32;;
25237;SDS011;13185;50.872;5.306;2022-10-31T16:28:14;6.45;;;3.08;;
25237;SDS011;13185;50.872;5.306;2022-10-31T16:30:49;8.93;;;3.40;;
25237;SDS011;13185;50.872;5.306;2022-10-31T16:33:26;12.70;;;3.17;;
25237;SDS011;13185;50.872;5.306;2022-10-31T16:35:54;10.55;;;3.13;;
25237;SDS011;13185;50.872;5.306;2022-10-31T16:38:21;5.88;;;2.70;;
25237;SDS011;13185;50.872;5.306;2022-10-31T16:40:47;9.05;;;2.90;;
25237;SDS011;13185;50.872;5.306;2022-10-31T16:43:14;9.23;;;3.58;;
25237;SDS011;13185;50.872;5.306;2022-10-31T16:45:49;11.48;;;3.22;;
25237;SDS011;13185;50.872;5.306;2022-10-31T16:48:16;11.93;;;2.85;;
25237;SDS011;13185;50.872;5.306;2022-10-31T16:50:48;8.15;;;2.72;;
25237;SDS011;13185;50.872;5.306;2022-10-31T16:53:14;14.02;;;2.97;;
25237;SDS011;13185;50.872;5.306;2022-10-31T16:55:57;8.95;;;2.83;;
25237;SDS011;13185;50.872;5.306;2022-10-31T16:58:25;9.93;;;2.50;;
25237;SDS011;13185;50.872;5.306;2022-10-31T17:00:52;11.32;;;2.97;;
25237;SDS011;13185;50.872;5.306;2022-10-31T17:03:18;8.05;;;3.10;;
25237;SDS011;13185;50.872;5.306;2022-10-31T17:05:44;8.20;;;2.58;;
25237;SDS011;13185;50.872;5.306;2022-10-31T17:08:09;10.50;;;3.35;;
25237;SDS011;13185;50.872;5.306;2022-10-31T17:10:35;10.32;;;4.10;;
25237;SDS011;13185;50.872;5.306;2022-10-31T17:13:01;8.63;;;4.10;;
25237;SDS011;13185;50.872;5.306;2022-10-31T17:15:30;9.55;;;3.72;;
25237;SDS011;13185;50.872;5.306;2022-10-31T17:18:02;9.23;;;4.78;;
25237;SDS011;13185;50.872;5.306;2022-10-31T17:20:29;8.73;;;3.92;;
25237;SDS011;13185;50.872;5.306;2022-10-31T17:22:55;10.23;;;3.65;;
25237;SDS011;13185;50.872;5.306;2022-10-31T17:25:24;6.88;;;2.88;;
25237;SDS011;13185;50.872;5.306;2022-10-31T17:27:51;9.65;;;3.03;;
25237;SDS011;13185;50.872;5.306;2022-10-31T17:30:18;7.72;;;3.00;;